Time;durP1;ratioP1;P1;durP2;ratioP2;P2;SDS_P1;SDS_P2;PMS_P1;PMS_P2;Temp;Humidity;BMP_temperature;BMP_pressure;BME280_temperature;BME280_humidity;BME280_pressure;Samples;Min_cycle;Max_cycle;Signal;HPM_P1;HPM_P2
2022/05/29 00:01:42;;;;;;;7.45;2.05;;;;;;;;;;5026810;28;20735;-69
2022/05/29 00:04:07;;;;;;;7.78;2.15;;;;;;;;;;5036955;28;20174;-69
2022/05/29 00:06:38;;;;;;;8.10;2.08;;;;;;;;;;5028768;28;20269;-69
2022/05/29 00:09:04;;;;;;;6.85;2.58;;;;;;;;;;5034450;28;20223;-68
2022/05/29 00:11:30;;;;;;;11.82;2.10;;;;;;;;;;5030544;28;20593;-67
2022/05/29 00:14:00;;;;;;;9.98;1.90;;;;;;;;;;5030016;28;20198;-68
2022/05/29 00:16:29;;;;;;;7.57;2.08;;;;;;;;;;5036789;28;20784;-68
2022/05/29 00:18:54;;;;;;;13.43;2.55;;;;;;;;;;5033355;28;20186;-68
2022/05/29 00:21:20;;;;;;;5.93;1.87;;;;;;;;;;5039308;28;20780;-68
2022/05/29 00:23:49;;;;;;;9.90;2.15;;;;;;;;;;5031223;28;20592;-69
2022/05/29 00:26:18;;;;;;;9.35;2.25;;;;;;;;;;5046950;28;20189;-69
2022/05/29 00:28:44;;;;;;;9.30;2.45;;;;;;;;;;5043966;28;20181;-69
2022/05/29 00:31:11;;;;;;;6.90;1.98;;;;;;;;;;5029713;28;20216;-69
2022/05/29 00:33:36;;;;;;;4.78;2.47;;;;;;;;;;5025913;28;20205;-69
2022/05/29 00:36:02;;;;;;;6.80;2.20;;;;;;;;;;5031087;28;20190;-69
2022/05/29 00:38:28;;;;;;;11.25;2.60;;;;;;;;;;5031778;28;20178;-69
2022/05/29 00:41:20;;;;;;;5.55;2.45;;;;;;;;;;5028561;28;20177;-69
2022/05/29 00:44:06;;;;;;;8.88;2.25;;;;;;;;;;5042031;28;20200;-68
2022/05/29 00:46:34;;;;;;;8.05;2.15;;;;;;;;;;5040322;28;20668;-69
2022/05/29 00:48:59;;;;;;;13.32;2.13;;;;;;;;;;5025002;28;20205;-69
2022/05/29 00:51:25;;;;;;;5.82;2.40;;;;;;;;;;5027844;28;20178;-69
2022/05/29 00:53:50;;;;;;;9.02;2.35;;;;;;;;;;5027557;28;20206;-69
2022/05/29 00:56:16;;;;;;;10.38;2.65;;;;;;;;;;5028379;28;20185;-69
2022/05/29 00:58:43;;;;;;;5.82;1.90;;;;;;;;;;5041317;28;20188;-69
2022/05/29 01:01:10;;;;;;;5.47;2.13;;;;;;;;;;5045679;28;20546;-68
2022/05/29 01:03:35;;;;;;;8.82;2.42;;;;;;;;;;5036891;28;20185;-68
2022/05/29 01:06:01;;;;;;;5.68;2.70;;;;;;;;;;5037237;28;20534;-71
2022/05/29 01:08:29;;;;;;;7.85;2.70;;;;;;;;;;5039235;28;20182;-70
2022/05/29 01:11:02;;;;;;;10.05;2.95;;;;;;;;;;5037850;28;20437;-70
2022/05/29 01:13:52;;;;;;;7.32;2.97;;;;;;;;;;5040772;28;20217;-70
2022/05/29 01:16:35;;;;;;;8.68;2.70;;;;;;;;;;5034405;28;20283;-71
2022/05/29 01:19:36;;;;;;;9.32;3.00;;;;;;;;;;5034776;28;20186;-71
2022/05/29 01:22:16;;;;;;;14.32;3.20;;;;;;;;;;5032248;28;20719;-70
2022/05/29 01:25:15;;;;;;;14.45;3.05;;;;;;;;;;5042341;28;20535;-69
2022/05/29 01:28:10;;;;;;;7.45;2.90;;;;;;;;;;5040178;28;20261;-69
2022/05/29 01:30:51;;;;;;;10.60;3.40;;;;;;;;;;5033601;28;20189;-69
2022/05/29 01:33:38;;;;;;;12.13;3.17;;;;;;;;;;5040877;28;20703;-68
2022/05/29 01:36:12;;;;;;;11.98;3.25;;;;;;;;;;5035188;28;20185;-69
2022/05/29 01:38:53;;;;;;;8.27;3.20;;;;;;;;;;5044315;28;20672;-70
2022/05/29 01:41:26;;;;;;;9.32;3.10;;;;;;;;;;5036816;28;20194;-70
2022/05/29 01:43:57;;;;;;;11.45;3.10;;;;;;;;;;5034363;28;20186;-70
2022/05/29 01:46:27;;;;;;;9.75;3.33;;;;;;;;;;5043033;28;20699;-70
2022/05/29 01:49:13;;;;;;;14.07;3.70;;;;;;;;;;5037427;28;20182;-71
2022/05/29 01:51:46;;;;;;;8.60;3.33;;;;;;;;;;5046393;28;20186;-71
2022/05/29 01:54:18;;;;;;;9.13;3.40;;;;;;;;;;5039369;28;20201;-71
2022/05/29 01:56:50;;;;;;;9.90;3.83;;;;;;;;;;5034959;28;20182;-71
2022/05/29 01:59:31;;;;;;;9.60;3.10;;;;;;;;;;5039740;28;20186;-72
2022/05/29 02:02:03;;;;;;;9.02;3.10;;;;;;;;;;5037030;28;20178;-71
2022/05/29 02:04:31;;;;;;;8.57;2.80;;;;;;;;;;5031758;28;20527;-71
2022/05/29 02:09:50;;;;;;;8.70;3.20;;;;;;;;;;5039723;28;20209;-71
2022/05/29 02:12:20;;;;;;;9.35;3.22;;;;;;;;;;5040382;28;20603;-71
2022/05/29 02:14:54;;;;;;;5.73;3.13;;;;;;;;;;5034140;28;20189;-71
2022/05/29 02:17:27;;;;;;;8.32;3.63;;;;;;;;;;5034344;28;20191;-71
2022/05/29 02:20:04;;;;;;;11.77;3.20;;;;;;;;;;5034816;28;20190;-72
2022/05/29 02:22:35;;;;;;;10.57;3.50;;;;;;;;;;5041398;28;20178;-71
2022/05/29 02:25:07;;;;;;;7.70;3.03;;;;;;;;;;5039649;28;20185;-70
2022/05/29 02:27:42;;;;;;;5.78;2.95;;;;;;;;;;5038236;28;20212;-71
2022/05/29 02:30:08;;;;;;;9.73;2.88;;;;;;;;;;5035935;28;20704;-71
2022/05/29 02:33:02;;;;;;;9.60;3.13;;;;;;;;;;5031835;28;20206;-71
2022/05/29 02:35:38;;;;;;;6.43;2.77;;;;;;;;;;5045557;28;20186;-71
2022/05/29 02:38:17;;;;;;;16.33;3.38;;;;;;;;;;5034115;28;20189;-71
2022/05/29 02:40:58;;;;;;;10.00;3.08;;;;;;;;;;5039212;28;20185;-72
2022/05/29 02:43:52;;;;;;;7.55;2.92;;;;;;;;;;5039237;28;20561;-72
2022/05/29 02:46:31;;;;;;;9.27;3.38;;;;;;;;;;5037976;28;20189;-71
2022/05/29 02:49:18;;;;;;;10.87;3.10;;;;;;;;;;5031480;28;20182;-70
2022/05/29 02:51:50;;;;;;;12.18;3.35;;;;;;;;;;5020942;28;20186;-71
2022/05/29 02:54:29;;;;;;;7.88;3.58;;;;;;;;;;5036995;28;20782;-71
2022/05/29 02:56:58;;;;;;;10.73;3.37;;;;;;;;;;5039738;28;20275;-71
2022/05/29 02:59:26;;;;;;;8.30;3.17;;;;;;;;;;5045489;28;20738;-71
2022/05/29 03:02:22;;;;;;;10.27;3.47;;;;;;;;;;5042238;28;20182;-71
2022/05/29 03:05:04;;;;;;;9.00;3.77;;;;;;;;;;5033977;28;20197;-71
2022/05/29 03:07:41;;;;;;;14.32;3.50;;;;;;;;;;5032586;28;20181;-71
2022/05/29 03:10:23;;;;;;;12.80;3.37;;;;;;;;;;5038207;28;20212;-71
2022/05/29 03:13:15;;;;;;;9.82;3.35;;;;;;;;;;5031517;28;20299;-71
2022/05/29 03:15:52;;;;;;;8.88;3.17;;;;;;;;;;5040362;28;20395;-71
2022/05/29 03:18:30;;;;;;;10.07;3.15;;;;;;;;;;5029955;28;20235;-71
2022/05/29 03:21:40;;;;;;;7.35;2.70;;;;;;;;;;5034903;28;20195;-70
2022/05/29 03:24:38;;;;;;;7.47;3.30;;;;;;;;;;5022129;28;20226;-70
2022/05/29 03:27:13;;;;;;;6.50;3.10;;;;;;;;;;5034759;28;20201;-70
2022/05/29 03:29:46;;;;;;;10.00;3.15;;;;;;;;;;5036150;28;20228;-70
2022/05/29 03:32:11;;;;;;;11.20;3.33;;;;;;;;;;5037224;28;20202;-70
2022/05/29 03:34:37;;;;;;;7.97;2.85;;;;;;;;;;5036313;28;20744;-70
2022/05/29 03:37:03;;;;;;;8.18;2.78;;;;;;;;;;5030557;28;20269;-71
2022/05/29 03:39:28;;;;;;;8.17;3.50;;;;;;;;;;5039853;28;20206;-70
2022/05/29 03:41:54;;;;;;;8.30;2.60;;;;;;;;;;5037445;28;20672;-71
2022/05/29 03:44:22;;;;;;;6.97;2.85;;;;;;;;;;5044819;28;20184;-71
2022/05/29 03:46:48;;;;;;;7.90;3.00;;;;;;;;;;5039920;28;20182;-70
2022/05/29 03:49:16;;;;;;;9.63;3.00;;;;;;;;;;5040287;28;20174;-70
2022/05/29 03:51:42;;;;;;;8.93;3.20;;;;;;;;;;5042159;28;20189;-71
2022/05/29 03:54:08;;;;;;;11.23;2.92;;;;;;;;;;5031373;28;20263;-71
2022/05/29 03:56:34;;;;;;;11.18;2.85;;;;;;;;;;5035273;28;20254;-71
2022/05/29 03:59:00;;;;;;;9.70;3.10;;;;;;;;;;5035862;28;20537;-71
2022/05/29 04:01:26;;;;;;;11.52;3.05;;;;;;;;;;5034730;28;20189;-71
2022/05/29 04:03:55;;;;;;;10.95;2.88;;;;;;;;;;5039020;28;20621;-71
2022/05/29 04:06:21;;;;;;;8.95;3.25;;;;;;;;;;5031700;28;20178;-71
2022/05/29 04:14:14;;;;;;;9.13;2.95;;;;;;;;;;5035664;28;20213;-71
2022/05/29 04:16:40;;;;;;;11.32;3.45;;;;;;;;;;5030333;28;20182;-70
2022/05/29 04:19:05;;;;;;;10.30;3.38;;;;;;;;;;5038858;28;20646;-70
2022/05/29 04:21:31;;;;;;;12.27;2.80;;;;;;;;;;5036564;28;20258;-71
2022/05/29 04:23:56;;;;;;;8.25;2.58;;;;;;;;;;5045470;28;20235;-72
2022/05/29 04:26:21;;;;;;;8.50;2.83;;;;;;;;;;5034186;28;20173;-71
2022/05/29 04:28:47;;;;;;;9.30;2.75;;;;;;;;;;5039516;28;20657;-71
2022/05/29 04:31:12;;;;;;;10.32;2.90;;;;;;;;;;5045822;28;20236;-71
2022/05/29 04:33:37;;;;;;;10.15;2.97;;;;;;;;;;5040712;28;20210;-71
2022/05/29 04:36:03;;;;;;;7.97;2.70;;;;;;;;;;5028629;28;20186;-71
2022/05/29 04:38:29;;;;;;;9.40;3.10;;;;;;;;;;5043539;28;20254;-69
2022/05/29 04:40:56;;;;;;;9.50;2.70;;;;;;;;;;5030177;28;20186;-71
2022/05/29 04:43:22;;;;;;;13.80;3.13;;;;;;;;;;5032718;28;20200;-71
2022/05/29 04:45:53;;;;;;;14.38;3.05;;;;;;;;;;5038117;28;20609;-71
2022/05/29 04:48:19;;;;;;;10.85;2.92;;;;;;;;;;5037122;28;20198;-71
2022/05/29 04:50:44;;;;;;;11.48;2.97;;;;;;;;;;5036315;28;20224;-71
2022/05/29 04:53:10;;;;;;;9.90;2.58;;;;;;;;;;5032886;28;20665;-70
2022/05/29 04:55:38;;;;;;;10.65;2.90;;;;;;;;;;5033905;28;20251;-70
2022/05/29 04:58:04;;;;;;;9.05;2.30;;;;;;;;;;5036922;28;20173;-70
2022/05/29 05:00:29;;;;;;;9.18;2.83;;;;;;;;;;5037787;28;20186;-70
2022/05/29 05:02:55;;;;;;;6.25;2.72;;;;;;;;;;5040430;28;20344;-70
2022/05/29 05:05:20;;;;;;;9.68;3.20;;;;;;;;;;5041091;28;20283;-71
2022/05/29 05:07:46;;;;;;;7.10;2.70;;;;;;;;;;5041192;28;20196;-71
2022/05/29 05:10:15;;;;;;;7.22;2.70;;;;;;;;;;5039296;28;20182;-71
2022/05/29 05:12:44;;;;;;;7.95;2.45;;;;;;;;;;5047886;28;20770;-71
2022/05/29 05:15:12;;;;;;;13.85;2.65;;;;;;;;;;5031140;28;20247;-71
2022/05/29 05:17:38;;;;;;;6.43;2.63;;;;;;;;;;5044486;28;20190;-71
2022/05/29 05:20:05;;;;;;;9.27;2.83;;;;;;;;;;5045713;28;20260;-71
2022/05/29 05:22:30;;;;;;;7.32;2.88;;;;;;;;;;5038803;28;20178;-70
2022/05/29 05:24:56;;;;;;;5.38;2.67;;;;;;;;;;5042413;28;20630;-71
2022/05/29 05:27:21;;;;;;;9.20;2.45;;;;;;;;;;5044096;28;20196;-71
2022/05/29 05:29:46;;;;;;;9.93;2.95;;;;;;;;;;5038372;28;20268;-71
2022/05/29 05:32:13;;;;;;;8.43;2.53;;;;;;;;;;5043237;28;20205;-71
2022/05/29 05:34:39;;;;;;;8.23;2.25;;;;;;;;;;5041589;28;20594;-71
2022/05/29 05:37:05;;;;;;;13.02;2.58;;;;;;;;;;5037371;28;20209;-71
2022/05/29 05:39:30;;;;;;;4.72;2.10;;;;;;;;;;5040943;28;20182;-71
2022/05/29 05:41:55;;;;;;;9.02;2.35;;;;;;;;;;5035131;28;20258;-71
2022/05/29 05:44:21;;;;;;;7.47;2.38;;;;;;;;;;5035971;28;20593;-71
2022/05/29 05:46:49;;;;;;;8.13;2.30;;;;;;;;;;5034633;28;20210;-71
2022/05/29 05:49:18;;;;;;;9.20;2.75;;;;;;;;;;5032884;28;20186;-71
2022/05/29 05:51:44;;;;;;;7.53;2.63;;;;;;;;;;5031496;28;20190;-71
2022/05/29 05:54:11;;;;;;;10.75;2.50;;;;;;;;;;5035414;28;20255;-71
2022/05/29 05:56:41;;;;;;;7.88;2.28;;;;;;;;;;5037636;28;20196;-71
2022/05/29 05:59:06;;;;;;;11.52;2.05;;;;;;;;;;5032517;28;20210;-71
2022/05/29 06:01:31;;;;;;;9.65;2.15;;;;;;;;;;5030865;28;20262;-67
2022/05/29 06:03:57;;;;;;;6.40;2.58;;;;;;;;;;5038811;28;20181;-70
2022/05/29 06:06:22;;;;;;;9.13;2.25;;;;;;;;;;5033231;28;20190;-71
2022/05/29 06:08:47;;;;;;;8.80;2.35;;;;;;;;;;5031535;28;20300;-70
2022/05/29 06:11:13;;;;;;;12.18;2.50;;;;;;;;;;5033923;28;20192;-71
2022/05/29 06:13:38;;;;;;;9.18;2.53;;;;;;;;;;5029457;28;20578;-70
2022/05/29 06:16:04;;;;;;;9.43;2.83;;;;;;;;;;5029941;28;20186;-70
2022/05/29 06:18:30;;;;;;;5.07;2.53;;;;;;;;;;5033369;28;20261;-71
2022/05/29 06:20:57;;;;;;;5.07;1.92;;;;;;;;;;5032095;28;20656;-71
2022/05/29 06:23:23;;;;;;;10.93;2.67;;;;;;;;;;5029263;28;20178;-71
2022/05/29 06:25:48;;;;;;;9.18;2.45;;;;;;;;;;5030289;28;20711;-71
2022/05/29 06:28:13;;;;;;;13.65;2.63;;;;;;;;;;5030182;28;20186;-70
2022/05/29 06:30:40;;;;;;;11.10;2.55;;;;;;;;;;5031830;28;20190;-70
2022/05/29 06:33:05;;;;;;;11.75;2.13;;;;;;;;;;5029587;28;20206;-70
2022/05/29 06:35:31;;;;;;;9.63;2.20;;;;;;;;;;5033338;28;20197;-69
2022/05/29 06:37:56;;;;;;;13.35;2.10;;;;;;;;;;5029524;28;20553;-70
2022/05/29 06:40:21;;;;;;;7.18;2.20;;;;;;;;;;5031712;28;20185;-71
2022/05/29 06:42:47;;;;;;;9.43;2.00;;;;;;;;;;5030052;28;20210;-72
2022/05/29 06:45:13;;;;;;;8.32;2.00;;;;;;;;;;5035533;28;21414;-71
2022/05/29 06:47:39;;;;;;;5.90;1.95;;;;;;;;;;5034167;28;20177;-71
2022/05/29 06:50:05;;;;;;;6.93;2.00;;;;;;;;;;5044760;28;20272;-67
2022/05/29 06:52:31;;;;;;;8.35;1.60;;;;;;;;;;5033325;28;20194;-70
2022/05/29 06:54:58;;;;;;;15.25;2.13;;;;;;;;;;5039489;28;20181;-71
2022/05/29 06:57:37;;;;;;;11.38;2.30;;;;;;;;;;5039258;28;20173;-69
2022/05/29 07:08:31;;;;;;;12.00;2.03;;;;;;;;;;5030295;28;20558;-70
2022/05/29 07:11:02;;;;;;;10.30;1.83;;;;;;;;;;5032518;28;20584;-71
2022/05/29 07:13:29;;;;;;;9.40;1.35;;;;;;;;;;5033825;28;20225;-70
2022/05/29 07:15:54;;;;;;;12.23;1.67;;;;;;;;;;5033355;28;20190;-70
2022/05/29 07:18:20;;;;;;;6.18;2.45;;;;;;;;;;5033480;28;20704;-70
2022/05/29 07:20:45;;;;;;;8.95;1.85;;;;;;;;;;5029773;28;20182;-71
2022/05/29 07:23:11;;;;;;;9.07;1.35;;;;;;;;;;5029746;28;20197;-70
2022/05/29 07:25:36;;;;;;;7.28;1.92;;;;;;;;;;5026956;28;20185;-70
2022/05/29 07:28:02;;;;;;;5.35;1.88;;;;;;;;;;5030897;28;20238;-70
2022/05/29 07:30:28;;;;;;;8.32;1.70;;;;;;;;;;5028180;28;20192;-65
2022/05/29 07:32:53;;;;;;;7.15;2.28;;;;;;;;;;5031060;28;20202;-71
2022/05/29 07:35:19;;;;;;;6.45;1.85;;;;;;;;;;5035050;28;20205;-69
2022/05/29 07:37:44;;;;;;;4.57;1.50;;;;;;;;;;5035288;28;20208;-70
2022/05/29 07:40:11;;;;;;;4.55;1.45;;;;;;;;;;5032887;28;20186;-70
2022/05/29 07:45:20;;;;;;;4.75;1.38;;;;;;;;;;5034653;28;20204;-70
2022/05/29 07:47:46;;;;;;;13.02;2.03;;;;;;;;;;5030094;28;20190;-71
2022/05/29 07:50:18;;;;;;;14.00;1.95;;;;;;;;;;5035149;28;20264;-70
2022/05/29 07:52:45;;;;;;;4.72;1.40;;;;;;;;;;5038721;28;20305;-66
2022/05/29 07:55:10;;;;;;;9.02;1.67;;;;;;;;;;5031404;28;20174;-68
2022/05/29 07:57:35;;;;;;;8.20;1.77;;;;;;;;;;5027494;28;20255;-71
2022/05/29 08:00:01;;;;;;;6.22;1.38;;;;;;;;;;5031383;28;20174;-69
2022/05/29 08:02:26;;;;;;;11.32;1.45;;;;;;;;;;5031932;28;20189;-70
2022/05/29 08:04:53;;;;;;;6.55;1.80;;;;;;;;;;5029771;28;20544;-71
2022/05/29 08:07:20;;;;;;;5.82;1.10;;;;;;;;;;5032666;28;20252;-70
2022/05/29 08:09:45;;;;;;;8.07;1.75;;;;;;;;;;5035058;28;20669;-70
2022/05/29 08:12:11;;;;;;;5.60;1.70;;;;;;;;;;5036574;28;20244;-70
2022/05/29 08:14:36;;;;;;;11.27;1.60;;;;;;;;;;5032882;28;20238;-71
2022/05/29 08:17:03;;;;;;;8.60;1.63;;;;;;;;;;5041468;28;20186;-69
2022/05/29 08:19:29;;;;;;;8.23;1.50;;;;;;;;;;5026891;28;20761;-70
2022/05/29 08:21:54;;;;;;;6.88;1.30;;;;;;;;;;5026429;28;20178;-68
2022/05/29 08:32:34;;;;;;;6.15;1.48;;;;;;;;;;5030633;28;20303;-71
2022/05/29 08:35:00;;;;;;;3.72;1.10;;;;;;;;;;5031555;28;20585;-70
2022/05/29 08:37:25;;;;;;;6.68;1.15;;;;;;;;;;5029736;28;20194;-70
2022/05/29 08:39:50;;;;;;;7.00;1.80;;;;;;;;;;5031624;28;20713;-71
2022/05/29 08:42:19;;;;;;;9.50;1.30;;;;;;;;;;5030091;28;20588;-71
2022/05/29 08:44:44;;;;;;;6.18;0.88;;;;;;;;;;5029580;28;20261;-69
2022/05/29 08:47:10;;;;;;;4.60;1.00;;;;;;;;;;5036792;28;20265;-71
2022/05/29 08:49:42;;;;;;;8.88;1.67;;;;;;;;;;5028786;28;20190;-69
2022/05/29 08:52:47;;;;;;;8.07;1.30;;;;;;;;;;5044862;28;20196;-69
2022/05/29 08:55:18;;;;;;;10.65;1.40;;;;;;;;;;5028305;28;20197;-70
2022/05/29 08:58:03;;;;;;;7.18;1.23;;;;;;;;;;5042951;28;20548;-69
2022/05/29 09:00:46;;;;;;;6.18;1.15;;;;;;;;;;5039718;28;20192;-69
2022/05/29 09:03:43;;;;;;;7.57;1.30;;;;;;;;;;5028842;28;20202;-70
2022/05/29 09:06:38;;;;;;;5.65;1.60;;;;;;;;;;5035481;28;20270;-69
2022/05/29 09:09:30;;;;;;;6.75;1.00;;;;;;;;;;5037535;28;20243;-69
2022/05/29 09:12:17;;;;;;;6.32;1.10;;;;;;;;;;5016750;28;20497;-71
2022/05/29 09:14:44;;;;;;;7.40;1.25;;;;;;;;;;5030735;28;20535;-70
2022/05/29 09:17:16;;;;;;;10.43;1.10;;;;;;;;;;5046921;28;20260;-70
2022/05/29 09:19:49;;;;;;;11.52;1.52;;;;;;;;;;5037316;28;20672;-68
2022/05/29 09:22:24;;;;;;;4.38;1.00;;;;;;;;;;5036745;28;20178;-66
2022/05/29 09:25:08;;;;;;;6.35;0.98;;;;;;;;;;5040323;28;20614;-70
2022/05/29 09:27:36;;;;;;;7.70;1.20;;;;;;;;;;5029813;28;20178;-70
2022/05/29 09:30:02;;;;;;;6.97;1.60;;;;;;;;;;5040435;28;20178;-71
2022/05/29 09:32:30;;;;;;;12.23;1.80;;;;;;;;;;5034022;28;20197;-71
2022/05/29 09:35:12;;;;;;;6.70;1.42;;;;;;;;;;5030482;28;20182;-70
2022/05/29 09:38:19;;;;;;;7.18;1.33;;;;;;;;;;5031920;28;20665;-69
2022/05/29 09:41:06;;;;;;;8.40;1.35;;;;;;;;;;5004553;28;20194;-69
2022/05/29 09:43:31;;;;;;;8.65;1.38;;;;;;;;;;5040528;28;20190;-69
2022/05/29 09:46:17;;;;;;;9.05;1.80;;;;;;;;;;5035805;28;20189;-69
2022/05/29 09:51:39;;;;;;;6.90;1.48;;;;;;;;;;5041444;28;20193;-69
2022/05/29 09:54:08;;;;;;;7.68;1.13;;;;;;;;;;5044912;28;20262;-65
2022/05/29 09:56:35;;;;;;;4.13;0.68;;;;;;;;;;5037502;28;20793;-64
2022/05/29 09:59:11;;;;;;;8.85;1.20;;;;;;;;;;5036213;28;20177;-69
2022/05/29 10:01:42;;;;;;;7.45;1.17;;;;;;;;;;5037414;28;20201;-71
2022/05/29 10:04:30;;;;;;;6.47;1.10;;;;;;;;;;5035998;28;20543;-68
2022/05/29 10:06:58;;;;;;;4.32;1.00;;;;;;;;;;5038625;28;20193;-66
2022/05/29 10:09:26;;;;;;;8.38;1.13;;;;;;;;;;5042080;28;20196;-65
2022/05/29 10:12:13;;;;;;;4.40;0.82;;;;;;;;;;5030761;28;20248;-70
2022/05/29 10:14:41;;;;;;;7.43;0.98;;;;;;;;;;5035711;28;20237;-71
2022/05/29 10:17:14;;;;;;;10.90;2.38;;;;;;;;;;5040205;28;20192;-69
2022/05/29 10:19:43;;;;;;;3.65;1.13;;;;;;;;;;5033883;28;20221;-70
2022/05/29 10:22:27;;;;;;;6.70;1.00;;;;;;;;;;5032359;28;20206;-70
2022/05/29 10:24:54;;;;;;;4.75;0.90;;;;;;;;;;5038224;28;20217;-69
2022/05/29 10:27:33;;;;;;;3.97;0.80;;;;;;;;;;5032724;28;20542;-69
2022/05/29 10:30:04;;;;;;;4.50;0.93;;;;;;;;;;5029831;28;20197;-69
2022/05/29 10:32:32;;;;;;;5.53;0.55;;;;;;;;;;5039686;28;20754;-71
2022/05/29 10:35:22;;;;;;;4.13;0.82;;;;;;;;;;5038682;28;20189;-68
2022/05/29 10:37:48;;;;;;;6.22;0.75;;;;;;;;;;5040255;28;20273;-68
2022/05/29 10:40:17;;;;;;;5.28;0.90;;;;;;;;;;5037426;28;20265;-71
2022/05/29 10:42:49;;;;;;;8.70;0.95;;;;;;;;;;5029997;28;20545;-73
2022/05/29 10:45:24;;;;;;;4.97;0.85;;;;;;;;;;5028738;28;20239;-70
2022/05/29 10:48:32;;;;;;;5.03;0.60;;;;;;;;;;5029246;28;20190;-70
2022/05/29 10:51:03;;;;;;;3.33;0.60;;;;;;;;;;5029864;28;20206;-69
2022/05/29 10:53:35;;;;;;;2.33;0.60;;;;;;;;;;5031125;28;20289;-68
2022/05/29 10:56:45;;;;;;;3.17;0.50;;;;;;;;;;5036482;28;20193;-70
2022/05/29 10:59:19;;;;;;;5.10;0.90;;;;;;;;;;5003029;28;20582;-68
2022/05/29 11:05:13;;;;;;;4.35;0.60;;;;;;;;;;5025978;28;20677;-70
2022/05/29 11:07:53;;;;;;;6.40;1.10;;;;;;;;;;5033236;28;20182;-70
2022/05/29 11:10:51;;;;;;;7.43;1.00;;;;;;;;;;5029809;28;20185;-71
2022/05/29 11:13:38;;;;;;;4.15;0.68;;;;;;;;;;5008419;28;20313;-70
2022/05/29 11:16:39;;;;;;;4.47;0.63;;;;;;;;;;5009220;28;20175;-70
2022/05/29 11:19:04;;;;;;;3.22;1.08;;;;;;;;;;5010071;28;20174;-69
2022/05/29 11:21:59;;;;;;;4.22;0.82;;;;;;;;;;5010472;28;20205;-68
2022/05/29 11:24:42;;;;;;;3.67;0.80;;;;;;;;;;5011030;28;20182;-69
2022/05/29 11:27:49;;;;;;;3.25;0.65;;;;;;;;;;5009197;28;20183;-65
2022/05/29 11:30:35;;;;;;;3.40;0.55;;;;;;;;;;5006845;28;20187;-69
2022/05/29 11:33:26;;;;;;;4.32;0.63;;;;;;;;;;5009089;28;20194;-69
2022/05/29 11:36:20;;;;;;;4.75;0.60;;;;;;;;;;5009972;28;20672;-70
2022/05/29 11:39:05;;;;;;;3.83;0.77;;;;;;;;;;5010637;28;20583;-70
2022/05/29 11:41:40;;;;;;;4.30;0.50;;;;;;;;;;5008858;28;20647;-69
2022/05/29 11:44:35;;;;;;;1.38;0.80;;;;;;;;;;5007934;28;20717;-69
2022/05/29 11:53:00;;;;;;;2.75;0.77;;;;;;;;;;5008606;28;20236;-70
2022/05/29 11:55:34;;;;;;;2.75;0.40;;;;;;;;;;5007934;28;20182;-69
2022/05/29 11:58:11;;;;;;;2.10;0.65;;;;;;;;;;5006547;28;21296;-69
2022/05/29 12:00:51;;;;;;;3.03;0.70;;;;;;;;;;5009385;28;20183;-69
2022/05/29 12:03:33;;;;;;;2.22;0.70;;;;;;;;;;5007627;28;20262;-68
2022/05/29 12:06:05;;;;;;;2.60;0.60;;;;;;;;;;5013319;28;20186;-65
2022/05/29 12:08:57;;;;;;;2.40;0.57;;;;;;;;;;5009245;28;20240;-70
2022/05/29 12:11:42;;;;;;;2.65;0.70;;;;;;;;;;5009844;28;20182;-70
2022/05/29 12:14:45;;;;;;;2.63;0.40;;;;;;;;;;5029914;28;20186;-69
2022/05/29 12:17:30;;;;;;;0.73;0.30;;;;;;;;;;5028293;28;20684;-70
2022/05/29 12:19:58;;;;;;;3.38;0.88;;;;;;;;;;5029054;28;20664;-68
2022/05/29 12:22:32;;;;;;;4.20;0.40;;;;;;;;;;5027532;28;20182;-71
2022/05/29 12:24:58;;;;;;;1.40;0.38;;;;;;;;;;5027470;28;20544;-70
2022/05/29 12:27:27;;;;;;;1.17;0.40;;;;;;;;;;5026937;28;20203;-69
2022/05/29 12:30:06;;;;;;;2.03;0.32;;;;;;;;;;5026432;28;20196;-70
2022/05/29 12:32:35;;;;;;;1.92;0.40;;;;;;;;;;5028509;28;20206;-70
2022/05/29 12:35:13;;;;;;;3.78;0.55;;;;;;;;;;5028653;28;20178;-69
2022/05/29 12:37:38;;;;;;;2.63;0.80;;;;;;;;;;5027307;28;20237;-70
2022/05/29 12:40:31;;;;;;;3.58;0.90;;;;;;;;;;5026354;28;20739;-69
2022/05/29 12:43:06;;;;;;;2.00;0.43;;;;;;;;;;5028285;28;20202;-66
2022/05/29 12:45:37;;;;;;;3.15;0.60;;;;;;;;;;5031036;28;20542;-70
2022/05/29 12:48:36;;;;;;;1.92;0.65;;;;;;;;;;5026931;28;20709;-70
2022/05/29 12:51:34;;;;;;;3.38;0.60;;;;;;;;;;5027081;28;20184;-70
2022/05/29 12:54:31;;;;;;;2.65;0.65;;;;;;;;;;5027136;28;20315;-70
2022/05/29 12:57:22;;;;;;;3.25;0.50;;;;;;;;;;5033509;28;20672;-67
2022/05/29 13:00:01;;;;;;;3.53;0.60;;;;;;;;;;5031052;28;20228;-70
2022/05/29 13:02:51;;;;;;;6.32;0.73;;;;;;;;;;5035012;28;20186;-68
2022/05/29 13:05:22;;;;;;;3.58;0.73;;;;;;;;;;5033525;28;20181;-69
2022/05/29 13:08:27;;;;;;;6.28;1.05;;;;;;;;;;5031052;28;20190;-72
2022/05/29 13:10:52;;;;;;;4.85;0.73;;;;;;;;;;5031881;28;20650;-71
2022/05/29 13:13:38;;;;;;;5.68;0.85;;;;;;;;;;5029186;28;20535;-70
2022/05/29 13:16:29;;;;;;;3.92;0.75;;;;;;;;;;5031190;28;20227;-71
2022/05/29 13:19:17;;;;;;;3.83;0.65;;;;;;;;;;5029998;28;20204;-70
2022/05/29 13:22:02;;;;;;;8.35;1.08;;;;;;;;;;5034944;28;20213;-69
2022/05/29 13:25:02;;;;;;;5.03;0.80;;;;;;;;;;5035090;28;20173;-71
2022/05/29 13:27:30;;;;;;;2.90;0.88;;;;;;;;;;5036185;28;20197;-71
2022/05/29 13:29:59;;;;;;;5.60;0.80;;;;;;;;;;5034220;28;20178;-72
2022/05/29 13:32:30;;;;;;;2.20;0.50;;;;;;;;;;5035093;28;20248;-69
2022/05/29 13:35:05;;;;;;;2.67;0.70;;;;;;;;;;5038046;28;20197;-70
2022/05/29 13:37:39;;;;;;;4.85;0.82;;;;;;;;;;5032604;28;20272;-69
2022/05/29 13:40:30;;;;;;;3.53;0.85;;;;;;;;;;5034483;28;20276;-70
2022/05/29 13:43:15;;;;;;;4.57;0.98;;;;;;;;;;5035174;28;20217;-69
2022/05/29 13:45:44;;;;;;;5.43;0.63;;;;;;;;;;5030315;28;20189;-66
2022/05/29 13:48:18;;;;;;;1.55;0.90;;;;;;;;;;5042325;28;20193;-70
2022/05/29 13:51:09;;;;;;;6.57;0.88;;;;;;;;;;5038137;28;20191;-65
2022/05/29 13:53:56;;;;;;;3.03;0.70;;;;;;;;;;5040751;28;20209;-71
2022/05/29 13:56:56;;;;;;;3.47;0.88;;;;;;;;;;5034488;28;20222;-71
2022/05/29 14:05:31;;;;;;;4.00;0.98;;;;;;;;;;5038782;28;20196;-71
2022/05/29 14:08:18;;;;;;;7.65;0.98;;;;;;;;;;5030025;28;20235;-69
2022/05/29 14:10:59;;;;;;;9.32;1.25;;;;;;;;;;5031947;28;20270;-72
2022/05/29 14:13:29;;;;;;;4.38;1.55;;;;;;;;;;5028547;28;20244;-70
2022/05/29 14:16:09;;;;;;;2.95;0.50;;;;;;;;;;5027197;28;20202;-72
2022/05/29 14:18:44;;;;;;;4.38;0.80;;;;;;;;;;5031610;28;20561;-70
2022/05/29 14:21:45;;;;;;;6.00;1.42;;;;;;;;;;5030461;28;20531;-70
2022/05/29 14:24:39;;;;;;;3.22;0.80;;;;;;;;;;5029747;28;20665;-71
2022/05/29 14:27:17;;;;;;;3.40;0.60;;;;;;;;;;5033551;28;20177;-68
2022/05/29 14:29:58;;;;;;;4.50;0.90;;;;;;;;;;5030384;28;20181;-68
2022/05/29 14:33:04;;;;;;;3.00;0.80;;;;;;;;;;5027512;28;20217;-65
2022/05/29 14:35:57;;;;;;;4.32;0.70;;;;;;;;;;5020497;28;20220;-71
2022/05/29 14:38:52;;;;;;;4.90;1.13;;;;;;;;;;5037739;28;20621;-70
2022/05/29 14:41:26;;;;;;;4.90;0.80;;;;;;;;;;5032060;28;20182;-68
2022/05/29 14:43:52;;;;;;;3.70;0.60;;;;;;;;;;5029249;28;20250;-71
2022/05/29 14:47:17;;;;;;;4.18;0.73;;;;;;;;;;5030288;28;20179;-71
2022/05/29 14:49:23;;;;;;;3.45;0.70;;;;;;;;;;5034670;28;20232;-67
2022/05/29 14:52:38;;;;;;;7.53;1.00;;;;;;;;;;5031845;28;20177;-70
2022/05/29 14:55:10;;;;;;;2.42;0.80;;;;;;;;;;5026938;28;20615;-68
2022/05/29 14:57:52;;;;;;;4.65;0.70;;;;;;;;;;5035811;28;20185;-71
2022/05/29 15:00:28;;;;;;;4.55;1.00;;;;;;;;;;5034841;28;20227;-68
2022/05/29 15:02:57;;;;;;;4.68;0.73;;;;;;;;;;5031802;28;20182;-71
2022/05/29 15:05:23;;;;;;;3.60;0.80;;;;;;;;;;5028799;28;20223;-70
2022/05/29 15:10:58;;;;;;;4.55;0.70;;;;;;;;;;5029060;28;20260;-71
2022/05/29 15:13:31;;;;;;;4.43;0.77;;;;;;;;;;5033389;28;20229;-70
2022/05/29 15:15:58;;;;;;;5.78;1.63;;;;;;;;;;5032464;28;20208;-70
2022/05/29 15:18:30;;;;;;;6.95;1.48;;;;;;;;;;5030213;28;20594;-71
2022/05/29 15:26:43;;;;;;;7.53;1.25;;;;;;;;;;5033062;28;20190;-68
2022/05/29 15:29:13;;;;;;;5.53;0.90;;;;;;;;;;5027894;28;20634;-71
2022/05/29 15:31:39;;;;;;;3.22;0.70;;;;;;;;;;5035123;28;20234;-66
2022/05/29 15:34:27;;;;;;;3.00;0.77;;;;;;;;;;5028160;28;20709;-66
2022/05/29 15:36:58;;;;;;;4.25;0.82;;;;;;;;;;5029117;28;20235;-70
2022/05/29 15:39:35;;;;;;;5.22;1.10;;;;;;;;;;5028819;28;20182;-70
2022/05/29 15:42:05;;;;;;;7.38;1.15;;;;;;;;;;5030036;28;20174;-69
2022/05/29 15:45:12;;;;;;;5.10;1.33;;;;;;;;;;5032446;28;20206;-72
2022/05/29 15:48:16;;;;;;;8.45;1.48;;;;;;;;;;5029628;28;20664;-71
2022/05/29 15:50:41;;;;;;;7.57;1.38;;;;;;;;;;5030483;28;20192;-68
2022/05/29 15:53:07;;;;;;;6.75;1.02;;;;;;;;;;5028731;28;20209;-71
2022/05/29 15:55:42;;;;;;;4.30;1.00;;;;;;;;;;5029379;28;20182;-71
2022/05/29 15:58:45;;;;;;;7.70;0.90;;;;;;;;;;5027435;28;20265;-71
2022/05/29 16:01:17;;;;;;;3.17;1.00;;;;;;;;;;5041147;28;20173;-69
2022/05/29 16:03:44;;;;;;;4.68;1.20;;;;;;;;;;5033375;28;20553;-67
2022/05/29 16:06:14;;;;;;;4.35;0.82;;;;;;;;;;5027000;28;20185;-71
2022/05/29 16:08:41;;;;;;;4.47;1.00;;;;;;;;;;5031562;28;20181;-70
2022/05/29 16:11:08;;;;;;;6.15;1.02;;;;;;;;;;5026505;28;20190;-69
2022/05/29 16:13:42;;;;;;;7.95;1.20;;;;;;;;;;5029693;28;20707;-70
2022/05/29 16:16:17;;;;;;;7.63;0.88;;;;;;;;;;5030479;28;20674;-71
2022/05/29 16:19:08;;;;;;;4.75;1.02;;;;;;;;;;5037350;28;20272;-66